createdAt,value
2024-03-04T00:00:00.903Z,73.23
2024-03-04T00:02:29.276Z,73.62
2024-03-04T00:04:57.130Z,73.63
2024-03-04T00:07:27.551Z,73.44
2024-03-04T00:09:55.413Z,73.74
2024-03-04T00:12:23.876Z,73.61
2024-03-04T00:14:53.054Z,73.62
2024-03-04T00:17:20.901Z,73.44
2024-03-04T00:19:48.714Z,73.78
2024-03-04T00:22:16.579Z,73.72
2024-03-04T00:24:45.961Z,73.75
2024-03-04T00:27:13.851Z,73.91
2024-03-04T00:29:42.057Z,73.94
2024-03-04T00:32:09.971Z,73.99
2024-03-04T00:34:38.155Z,73.98
2024-03-04T00:37:06.516Z,73.95
2024-03-04T00:39:34.320Z,74.14
2024-03-04T00:42:05.133Z,74.01
2024-03-04T00:44:35.718Z,73.85
2024-03-04T00:47:04.342Z,73.87
2024-03-04T00:49:32.255Z,73.88
2024-03-04T00:52:00.230Z,73.99
2024-03-04T00:54:28.082Z,73.96
2024-03-04T00:56:57.013Z,74.06
2024-03-04T00:59:24.964Z,73.95
2024-03-04T01:01:52.770Z,74.17
2024-03-04T01:04:20.709Z,74.16
2024-03-04T01:06:53.458Z,74.28
2024-03-04T01:09:21.725Z,74.22
2024-03-04T01:11:51.555Z,74.45
2024-03-04T01:14:21.616Z,74.48
2024-03-04T01:16:53.719Z,74.59
2024-03-04T01:19:21.739Z,74.64
2024-03-04T01:21:49.613Z,74.68
2024-03-04T01:24:19.121Z,74.72
2024-03-04T01:26:47.053Z,74.79
2024-03-04T01:29:14.933Z,75.00
2024-03-04T01:31:44.058Z,74.82
2024-03-04T01:34:14.919Z,75.00
2024-03-04T01:36:42.718Z,75.10
2024-03-04T01:39:10.628Z,75.08
2024-03-04T01:41:38.709Z,74.89
2024-03-04T01:44:06.502Z,74.99
2024-03-04T01:46:35.169Z,74.95
2024-03-04T01:49:03.171Z,74.89
2024-03-04T01:51:31.703Z,74.92
2024-03-04T01:53:59.536Z,74.89
2024-03-04T01:56:28.059Z,75.02
2024-03-04T01:58:56.925Z,75.00
2024-03-04T02:01:27.355Z,75.02
2024-03-04T02:03:55.755Z,75.07
2024-03-04T02:06:26.703Z,75.10
2024-03-04T02:08:54.529Z,75.07
2024-03-04T02:11:22.374Z,74.99
2024-03-04T02:13:50.316Z,75.38
2024-03-04T02:16:23.064Z,75.27
2024-03-04T02:18:54.068Z,75.31
2024-03-04T02:21:23.016Z,75.31
2024-03-04T02:23:51.132Z,75.44
2024-03-04T02:26:19.134Z,75.54
2024-03-04T02:28:46.967Z,75.58
2024-03-04T02:31:15.125Z,75.35
2024-03-04T02:33:45.921Z,75.58
2024-03-04T02:36:13.943Z,75.46
2024-03-04T02:38:42.477Z,75.61
2024-03-04T02:41:10.614Z,75.57
2024-03-04T02:43:38.580Z,75.58
2024-03-04T02:46:06.667Z,75.70
2024-03-04T02:48:34.736Z,75.82
2024-03-04T02:51:02.487Z,75.90
2024-03-04T02:53:30.311Z,75.73
2024-03-04T02:55:58.200Z,75.79
2024-03-04T02:58:26.253Z,75.90
2024-03-04T03:00:54.293Z,75.94
2024-03-04T03:03:24.116Z,76.05
2024-03-04T03:05:52.203Z,76.02
2024-03-04T03:08:20.132Z,76.02
2024-03-04T03:10:48.403Z,76.03
2024-03-04T03:13:16.439Z,76.13
2024-03-04T03:15:45.851Z,76.27
2024-03-04T03:18:15.176Z,76.09
2024-03-04T03:20:43.155Z,76.42
2024-03-04T03:23:13.770Z,76.39
2024-03-04T03:25:41.647Z,76.32
2024-03-04T03:28:09.632Z,76.52
2024-03-04T03:30:37.515Z,76.40
2024-03-04T03:33:05.498Z,76.59
2024-03-04T03:35:33.685Z,76.67
2024-03-04T03:38:01.547Z,76.77
2024-03-04T03:40:32.800Z,76.57
2024-03-04T03:43:00.854Z,76.68
2024-03-04T03:45:28.987Z,76.72
2024-03-04T03:47:56.912Z,76.81
2024-03-04T03:50:24.823Z,77.00
2024-03-04T03:52:52.727Z,76.85
2024-03-04T03:55:20.670Z,76.95
2024-03-04T03:57:55.663Z,76.96
2024-03-04T04:00:29.034Z,77.17
2024-03-04T04:02:58.930Z,77.00
2024-03-04T04:05:28.703Z,77.22
2024-03-04T04:07:56.934Z,77.19
2024-03-04T04:10:27.433Z,77.03
2024-03-04T04:13:00.363Z,77.28
2024-03-04T04:15:29.969Z,77.16
2024-03-04T04:17:58.472Z,77.31
2024-03-04T04:20:28.583Z,77.39
2024-03-04T04:22:56.327Z,77.53
2024-03-04T04:25:24.188Z,77.21
2024-03-04T04:27:52.236Z,77.16
2024-03-04T04:30:23.919Z,77.26
2024-03-04T04:32:51.778Z,77.09
2024-03-04T04:35:21.583Z,77.18
2024-03-04T04:37:49.388Z,76.85
2024-03-04T04:40:20.659Z,77.03
2024-03-04T04:42:49.245Z,77.15
2024-03-04T04:45:16.992Z,77.03
2024-03-04T04:47:45.060Z,76.84
2024-03-04T04:50:13.554Z,77.05
2024-03-04T04:52:41.471Z,77.21
2024-03-04T04:55:09.547Z,77.02
2024-03-04T04:57:37.373Z,76.97
2024-03-04T05:00:05.731Z,77.28
2024-03-04T05:02:33.542Z,77.05
2024-03-04T05:05:01.588Z,77.14
2024-03-04T05:07:29.898Z,77.17
2024-03-04T05:09:59.320Z,77.04
2024-03-04T05:12:27.583Z,77.45
2024-03-04T05:14:56.082Z,77.30
2024-03-04T05:17:24.182Z,77.34
2024-03-04T05:19:52.342Z,77.69
2024-03-04T05:22:20.262Z,77.13
2024-03-04T05:24:48.156Z,77.35
2024-03-04T05:27:15.979Z,77.43
2024-03-04T05:29:43.787Z,77.43
2024-03-04T05:32:12.180Z,77.23
2024-03-04T05:34:42.095Z,77.46
2024-03-04T05:37:13.002Z,77.58
2024-03-04T05:39:41.001Z,77.39
2024-03-04T05:42:09.820Z,77.64
2024-03-04T05:44:37.578Z,77.49
2024-03-04T05:47:05.450Z,77.33
2024-03-04T05:49:33.545Z,77.43
2024-03-04T05:52:01.494Z,77.31
2024-03-04T05:54:29.346Z,77.32
2024-03-04T05:56:57.305Z,77.51
2024-03-04T05:59:25.160Z,77.51
2024-03-04T06:01:53.479Z,77.79
2024-03-04T06:04:21.463Z,77.93
2024-03-04T06:06:49.294Z,77.62
2024-03-04T06:09:18.100Z,77.66
2024-03-04T06:11:47.604Z,77.75
2024-03-04T06:14:16.031Z,77.69
2024-03-04T06:16:44.017Z,77.77
2024-03-04T06:19:12.222Z,78.00
2024-03-04T06:21:40.124Z,77.79
2024-03-04T06:24:08.030Z,77.89
2024-03-04T06:26:36.020Z,77.86
2024-03-04T06:29:03.805Z,78.20
2024-03-04T06:31:31.656Z,77.87
2024-03-04T06:34:08.404Z,77.95
2024-03-04T06:36:43.389Z,78.00
2024-03-04T06:39:11.272Z,78.36
2024-03-04T06:41:39.120Z,78.16
2024-03-04T06:44:08.880Z,78.27
2024-03-04T06:46:36.913Z,78.29
2024-03-04T06:49:05.068Z,78.49
2024-03-04T06:51:36.723Z,78.53
2024-03-04T06:54:11.422Z,78.38
2024-03-04T06:56:39.318Z,78.57
2024-03-04T06:59:07.296Z,78.34
2024-03-04T07:01:35.523Z,78.46
2024-03-04T07:04:03.599Z,78.21
2024-03-04T07:06:31.669Z,78.32
2024-03-04T07:08:59.649Z,78.50
2024-03-04T07:11:27.680Z,78.22
2024-03-04T07:13:55.658Z,78.65
2024-03-04T07:16:23.560Z,78.54
2024-03-04T07:18:53.902Z,78.81
2024-03-04T07:21:21.952Z,78.84
2024-03-04T07:23:49.926Z,78.69
2024-03-04T07:26:21.287Z,78.75
2024-03-04T07:28:49.804Z,78.36
2024-03-04T07:31:18.410Z,78.37
2024-03-04T07:33:47.857Z,78.55
2024-03-04T07:36:17.240Z,78.46
2024-03-04T07:38:45.723Z,78.82
2024-03-04T07:41:13.762Z,78.50
2024-03-04T07:43:42.472Z,78.54
2024-03-04T07:46:10.505Z,78.46
2024-03-04T07:48:38.382Z,78.37
2024-03-04T07:51:07.129Z,78.43
2024-03-04T07:53:35.032Z,78.23
2024-03-04T07:56:03.102Z,78.45
2024-03-04T07:58:31.384Z,78.60
2024-03-04T08:01:01.261Z,78.33
2024-03-04T08:03:29.454Z,78.50
2024-03-04T08:05:57.643Z,78.20
2024-03-04T08:08:25.525Z,78.12
2024-03-04T08:10:54.471Z,78.26
2024-03-04T08:13:22.470Z,78.17
2024-03-04T08:15:50.698Z,77.96
2024-03-04T08:18:18.607Z,77.92
2024-03-04T08:20:46.653Z,77.68
2024-03-04T08:23:14.576Z,77.79
2024-03-04T08:25:42.521Z,77.78
2024-03-04T08:28:19.832Z,77.52
2024-03-04T08:30:52.489Z,77.70
2024-03-04T08:33:20.848Z,77.79
2024-03-04T08:35:48.794Z,77.75
2024-03-04T08:38:16.751Z,77.61
2024-03-04T08:40:44.832Z,77.55
2024-03-04T08:43:15.054Z,77.44
2024-03-04T08:45:42.977Z,77.28
2024-03-04T08:48:10.944Z,76.93
2024-03-04T08:50:38.983Z,77.06
2024-03-04T08:53:06.969Z,76.65
2024-03-04T08:55:35.080Z,76.51
2024-03-04T08:58:03.639Z,76.64
2024-03-04T09:00:31.931Z,76.77
2024-03-04T09:02:59.853Z,76.62
2024-03-04T09:05:28.221Z,76.39
2024-03-04T09:07:56.085Z,75.74
2024-03-04T09:10:24.240Z,76.01
2024-03-04T09:12:52.457Z,76.10
2024-03-04T09:15:21.693Z,75.27
2024-03-04T09:17:49.907Z,75.23
2024-03-04T09:20:18.997Z,74.77
2024-03-04T09:22:46.977Z,75.09
2024-03-04T09:28:00.200Z,74.94
2024-03-04T09:30:28.497Z,74.85
2024-03-04T09:32:56.499Z,74.66
2024-03-04T09:35:24.404Z,74.63
2024-03-04T09:37:52.579Z,74.75
2024-03-04T09:40:20.739Z,74.43
2024-03-04T09:42:49.445Z,74.49
2024-03-04T09:45:18.739Z,74.72
2024-03-04T09:47:49.734Z,74.40
2024-03-04T09:50:18.422Z,74.25
2024-03-04T09:52:46.821Z,74.10
2024-03-04T09:55:15.129Z,73.75
2024-03-04T09:57:43.939Z,72.44
2024-03-04T10:00:15.797Z,72.91
2024-03-04T10:02:44.654Z,73.42
2024-03-04T10:05:14.393Z,73.53
2024-03-04T10:07:42.506Z,73.06
2024-03-04T10:10:14.606Z,72.36
2024-03-04T10:12:42.918Z,72.59
2024-03-04T10:15:12.122Z,72.66
2024-03-04T10:17:40.877Z,72.81
2024-03-04T10:20:13.204Z,72.39
2024-03-04T10:22:41.515Z,72.67
2024-03-04T10:25:14.743Z,72.60
2024-03-04T10:27:44.983Z,72.64
2024-03-04T10:30:14.022Z,73.01
2024-03-04T10:33:07.235Z,72.84
2024-03-04T10:35:36.277Z,73.00
2024-03-04T10:38:05.013Z,72.77
2024-03-04T10:40:38.305Z,72.32
2024-03-04T10:43:08.029Z,72.45
2024-03-04T10:45:36.993Z,71.98
2024-03-04T10:48:05.778Z,72.13
2024-03-04T10:50:33.790Z,72.21
2024-03-04T10:53:03.798Z,71.86
2024-03-04T10:55:33.095Z,70.94
2024-03-04T10:58:03.698Z,71.22
2024-03-04T11:00:34.642Z,70.83
2024-03-04T11:03:03.422Z,70.85
2024-03-04T11:05:34.952Z,70.92
2024-03-04T11:08:22.064Z,70.94
2024-03-04T11:11:12.028Z,71.28
2024-03-04T11:13:58.816Z,70.60
2024-03-04T11:16:41.832Z,70.05
2024-03-04T11:19:23.779Z,70.11
2024-03-04T11:21:52.113Z,70.17
2024-03-04T11:24:20.922Z,70.09
2024-03-04T11:26:50.140Z,69.35
2024-03-04T11:29:19.794Z,69.50
2024-03-04T11:31:57.917Z,68.85
2024-03-04T11:34:26.277Z,68.93
2024-03-04T11:36:57.337Z,68.96
2024-03-04T11:39:26.733Z,69.02
2024-03-04T11:41:54.952Z,68.78
2024-03-04T11:44:30.409Z,68.94
2024-03-04T11:46:58.991Z,68.99
2024-03-04T11:49:27.748Z,69.00
2024-03-04T11:52:15.718Z,69.15
2024-03-04T11:54:44.762Z,68.89
2024-03-04T11:57:12.796Z,68.55
2024-03-04T11:59:42.228Z,68.30
2024-03-04T12:02:11.359Z,68.72
2024-03-04T12:04:41.852Z,68.65
2024-03-04T12:07:10.088Z,68.62
2024-03-04T12:09:50.987Z,68.67
2024-03-04T12:12:26.136Z,68.88
2024-03-04T12:14:54.112Z,68.77
2024-03-04T12:17:22.073Z,68.66
2024-03-04T12:19:57.081Z,68.69
2024-03-04T12:22:32.043Z,68.73
2024-03-04T12:25:08.057Z,68.71
2024-03-04T12:27:37.127Z,68.81
2024-03-04T12:30:24.923Z,68.57
2024-03-04T12:32:53.988Z,68.57
2024-03-04T12:35:30.202Z,68.74
2024-03-04T12:37:59.966Z,68.61
2024-03-04T12:40:28.234Z,68.63
2024-03-04T12:42:59.748Z,68.44
2024-03-04T12:45:28.590Z,68.59
2024-03-04T12:47:58.482Z,68.71
2024-03-04T12:50:28.287Z,68.76
2024-03-04T12:52:57.656Z,68.68
2024-03-04T12:55:26.120Z,68.65
2024-03-04T12:57:57.416Z,68.97
2024-03-04T13:00:26.347Z,69.05
2024-03-04T13:02:54.459Z,68.96
2024-03-04T13:05:22.431Z,68.96
2024-03-04T13:07:50.396Z,69.13
2024-03-04T13:10:18.503Z,69.23
2024-03-04T13:12:49.435Z,69.21
2024-03-04T13:15:17.857Z,69.31
2024-03-04T13:17:46.295Z,69.36
2024-03-04T13:20:15.175Z,69.61
2024-03-04T13:22:49.891Z,69.47
2024-03-04T13:25:19.825Z,69.45
2024-03-04T13:27:48.335Z,69.65
2024-03-04T13:30:16.458Z,69.83
2024-03-04T13:32:46.215Z,69.71
2024-03-04T13:35:14.575Z,70.08
2024-03-04T13:37:42.636Z,69.82
2024-03-04T13:40:12.331Z,70.07
2024-03-04T13:42:42.320Z,70.03
2024-03-04T13:45:10.873Z,69.93
2024-03-04T13:47:39.474Z,70.10
2024-03-04T13:50:07.931Z,70.22
2024-03-04T13:52:36.118Z,70.19
2024-03-04T13:55:04.323Z,69.85
2024-03-04T13:57:33.398Z,70.05
2024-03-04T14:00:01.436Z,70.15
2024-03-04T14:02:29.495Z,70.18
2024-03-04T14:04:57.466Z,70.12
2024-03-04T14:07:26.072Z,70.19
2024-03-04T14:09:56.546Z,70.25
2024-03-04T14:12:24.653Z,70.13
2024-03-04T14:14:52.559Z,70.33
2024-03-04T14:17:20.451Z,70.20
2024-03-04T14:19:48.598Z,70.23
2024-03-04T14:22:16.562Z,70.65
2024-03-04T14:24:44.560Z,70.57
2024-03-04T14:27:12.496Z,70.30
2024-03-04T14:29:44.040Z,70.37
2024-03-04T14:32:12.024Z,70.66
2024-03-04T14:34:40.204Z,70.49
2024-03-04T14:37:08.156Z,70.54
2024-03-04T14:39:36.099Z,70.68
2024-03-04T14:42:05.060Z,70.82
2024-03-04T14:44:32.970Z,70.63
2024-03-04T14:47:00.882Z,70.75
2024-03-04T14:49:29.460Z,70.62
2024-03-04T14:51:57.364Z,71.00
2024-03-04T14:54:25.250Z,70.71
2024-03-04T14:56:53.273Z,71.05
2024-03-04T14:59:21.162Z,71.03
2024-03-04T15:01:50.305Z,70.82
2024-03-04T15:04:18.563Z,70.72
2024-03-04T15:06:46.436Z,70.89
2024-03-04T15:09:14.491Z,70.67
2024-03-04T15:11:45.768Z,70.90
2024-03-04T15:14:13.777Z,71.05
2024-03-04T15:16:48.684Z,70.93
2024-03-04T15:19:16.706Z,71.25
2024-03-04T15:21:44.635Z,71.04
2024-03-04T15:24:12.560Z,71.16
2024-03-04T15:26:55.576Z,71.28
2024-03-04T15:29:23.589Z,71.09
2024-03-04T15:31:51.483Z,71.43
2024-03-04T15:34:19.323Z,70.94
2024-03-04T15:36:50.736Z,71.03
2024-03-04T15:39:19.318Z,71.08
2024-03-04T15:41:47.168Z,70.98
2024-03-04T15:44:15.238Z,71.12
2024-03-04T15:46:46.727Z,71.24
2024-03-04T15:49:15.781Z,71.49
2024-03-04T15:51:47.509Z,71.24
2024-03-04T15:54:15.408Z,71.71
2024-03-04T15:56:43.668Z,71.60
2024-03-04T15:59:11.924Z,71.64
2024-03-04T16:01:40.130Z,71.72
2024-03-04T16:04:08.363Z,71.76
2024-03-04T16:06:36.560Z,71.94
2024-03-04T16:09:05.080Z,71.86
2024-03-04T16:11:33.029Z,72.10
2024-03-04T16:14:01.032Z,72.12
2024-03-04T16:16:29.649Z,71.51
2024-03-04T16:18:57.642Z,71.67
2024-03-04T16:21:25.843Z,71.92
2024-03-04T16:23:54.363Z,71.79
2024-03-04T16:26:22.468Z,71.83
2024-03-04T16:28:50.756Z,71.65
2024-03-04T16:31:18.768Z,71.63
2024-03-04T16:33:46.671Z,71.79
2024-03-04T16:36:15.494Z,71.72
2024-03-04T16:38:43.935Z,71.74
2024-03-04T16:41:22.692Z,71.77
2024-03-04T16:43:50.938Z,72.09
2024-03-04T16:46:18.932Z,71.77
2024-03-04T16:48:48.671Z,72.05
2024-03-04T16:51:16.970Z,72.07
2024-03-04T16:53:45.903Z,71.76
2024-03-04T16:56:13.901Z,72.00
2024-03-04T16:58:41.952Z,71.90
2024-03-04T17:01:11.562Z,72.09
2024-03-04T17:03:41.411Z,72.27
2024-03-04T17:06:09.428Z,72.06
2024-03-04T17:08:37.316Z,72.41
2024-03-04T17:11:06.451Z,72.24
2024-03-04T17:13:34.756Z,72.45
2024-03-04T17:16:02.710Z,72.29
2024-03-04T17:18:30.690Z,72.40
2024-03-04T17:20:58.673Z,72.58
2024-03-04T17:23:26.738Z,72.40
2024-03-04T17:25:54.720Z,72.63
2024-03-04T17:28:22.860Z,72.49
2024-03-04T17:30:52.704Z,72.63
2024-03-04T17:33:21.362Z,72.43
2024-03-04T17:35:49.497Z,72.47
2024-03-04T17:38:18.671Z,72.56
2024-03-04T17:40:46.908Z,72.38
2024-03-04T17:43:15.582Z,72.49
2024-03-04T17:45:45.949Z,72.55
2024-03-04T17:48:14.792Z,72.55
2024-03-04T17:50:43.631Z,72.44
2024-03-04T17:53:11.556Z,72.28
2024-03-04T17:55:42.691Z,72.59
2024-03-04T17:58:12.664Z,72.62
2024-03-04T18:00:40.709Z,72.54
2024-03-04T18:03:08.768Z,72.58
2024-03-04T18:05:36.906Z,72.43
2024-03-04T18:08:05.126Z,72.59
2024-03-04T18:10:36.512Z,72.76
2024-03-04T18:13:07.029Z,72.79
2024-03-04T18:15:35.436Z,72.71
2024-03-04T18:18:04.129Z,72.79
2024-03-04T18:20:32.086Z,72.93
2024-03-04T18:23:00.006Z,73.08
2024-03-04T18:25:28.174Z,73.19
2024-03-04T18:27:56.036Z,73.14
2024-03-04T18:30:23.957Z,73.16
2024-03-04T18:32:51.963Z,73.01
2024-03-04T18:35:21.126Z,73.18
2024-03-04T18:37:49.270Z,73.12
2024-03-04T18:40:17.212Z,73.10
2024-03-04T18:42:47.553Z,73.35
2024-03-04T18:45:15.560Z,73.24
2024-03-04T18:47:43.459Z,73.28
2024-03-04T18:50:11.484Z,73.28
2024-03-04T18:52:40.009Z,73.11
2024-03-04T18:55:08.081Z,73.12
2024-03-04T18:57:36.247Z,73.26
2024-03-04T19:00:06.377Z,73.12
2024-03-04T19:02:34.739Z,73.23
2024-03-04T19:05:02.784Z,73.19
2024-03-04T19:07:33.556Z,73.43
2024-03-04T19:10:05.298Z,73.20
2024-03-04T19:12:34.728Z,73.29
2024-03-04T19:15:06.438Z,73.22
2024-03-04T19:17:34.512Z,73.24
2024-03-04T19:20:05.475Z,73.26
2024-03-04T19:22:33.569Z,73.43
2024-03-04T19:25:02.618Z,73.34
2024-03-04T19:27:30.544Z,73.23
2024-03-04T19:29:58.520Z,73.37
2024-03-04T19:32:26.487Z,73.06
2024-03-04T19:34:54.458Z,73.16
2024-03-04T19:37:22.365Z,73.18
2024-03-04T19:39:50.415Z,73.26
2024-03-04T19:42:22.230Z,73.34
2024-03-04T19:44:50.305Z,73.32
2024-03-04T19:47:18.238Z,73.20
2024-03-04T19:49:46.148Z,73.30
2024-03-04T19:52:14.405Z,73.39
2024-03-04T19:54:42.340Z,73.18
2024-03-04T19:57:10.217Z,73.31
2024-03-04T19:59:39.300Z,73.29
2024-03-04T20:02:07.392Z,73.44
2024-03-04T20:04:35.364Z,73.38
2024-03-04T20:07:06.459Z,73.40
2024-03-04T20:09:34.733Z,73.60
2024-03-04T20:12:02.734Z,73.48
2024-03-04T20:14:30.957Z,73.63
2024-03-04T20:16:59.309Z,73.59
2024-03-04T20:19:28.168Z,73.61
2024-03-04T20:21:56.486Z,73.60
2024-03-04T20:24:24.394Z,73.59
2024-03-04T20:26:52.215Z,73.72
2024-03-04T20:29:21.606Z,73.63
2024-03-04T20:31:50.139Z,73.60
2024-03-04T20:34:18.099Z,73.80
2024-03-04T20:36:45.925Z,73.95
2024-03-04T20:39:14.612Z,73.98
2024-03-04T20:41:42.530Z,73.70
2024-03-04T20:44:10.470Z,74.00
2024-03-04T20:46:38.374Z,73.99
2024-03-04T20:49:06.325Z,73.83
2024-03-04T20:51:36.356Z,73.94
2024-03-04T20:54:04.679Z,74.01
2024-03-04T20:56:33.390Z,73.92
2024-03-04T20:59:01.531Z,74.03
2024-03-04T21:01:29.629Z,73.98
2024-03-04T21:03:57.841Z,74.09
2024-03-04T21:06:25.779Z,74.09
2024-03-04T21:08:53.811Z,74.11
2024-03-04T21:11:21.846Z,74.09
2024-03-04T21:13:51.522Z,74.28
2024-03-04T21:16:19.655Z,74.22
2024-03-04T21:18:47.489Z,74.45
2024-03-04T21:21:15.417Z,74.32
2024-03-04T21:23:43.783Z,74.35
2024-03-04T21:26:11.720Z,74.45
2024-03-04T21:28:43.898Z,74.42
2024-03-04T21:31:11.998Z,74.65
2024-03-04T21:33:39.888Z,74.50
2024-03-04T21:36:07.907Z,74.60
2024-03-04T21:38:36.081Z,74.84
2024-03-04T21:41:04.627Z,74.93
2024-03-04T21:43:32.582Z,74.99
2024-03-04T21:46:00.712Z,74.92
2024-03-04T21:48:28.720Z,74.96
2024-03-04T21:50:56.738Z,75.19
2024-03-04T21:53:24.964Z,75.26
2024-03-04T21:55:54.203Z,75.44
2024-03-04T21:58:22.452Z,75.49
2024-03-04T22:00:52.228Z,75.44
2024-03-04T22:03:20.268Z,75.58
2024-03-04T22:05:49.796Z,75.71
2024-03-04T22:08:19.894Z,76.00
2024-03-04T22:10:49.123Z,76.01
2024-03-04T22:13:18.872Z,76.13
2024-03-04T22:15:47.040Z,76.31
2024-03-04T22:18:14.979Z,76.30
2024-03-04T22:20:43.032Z,76.40
2024-03-04T22:23:10.960Z,76.33
2024-03-04T22:25:38.849Z,76.28
2024-03-04T22:28:07.465Z,76.41
2024-03-04T22:30:36.665Z,76.41
2024-03-04T22:33:05.093Z,76.56
2024-03-04T22:35:33.069Z,76.54
2024-03-04T22:38:01.114Z,76.50
2024-03-04T22:40:29.118Z,76.52
2024-03-04T22:42:58.239Z,76.47
2024-03-04T22:45:26.469Z,76.55
2024-03-04T22:47:55.465Z,76.51
2024-03-04T22:50:23.421Z,76.31
2024-03-04T22:52:52.571Z,76.59
2024-03-04T22:55:20.575Z,76.35
2024-03-04T22:57:48.556Z,76.29
2024-03-04T23:00:19.152Z,76.24
2024-03-04T23:02:50.277Z,76.51
2024-03-04T23:05:18.456Z,76.37
2024-03-04T23:07:48.718Z,76.41
2024-03-04T23:10:17.310Z,76.39
2024-03-04T23:12:45.233Z,76.40
2024-03-04T23:15:13.664Z,76.35
2024-03-04T23:17:41.682Z,76.72
2024-03-04T23:20:10.257Z,76.79
2024-03-04T23:22:38.360Z,76.65
2024-03-04T23:25:06.538Z,76.74
2024-03-04T23:27:34.405Z,76.93
2024-03-04T23:30:02.833Z,77.02
2024-03-04T23:32:30.893Z,77.00
2024-03-04T23:34:58.875Z,77.17
2024-03-04T23:37:26.754Z,76.99
2024-03-04T23:39:55.840Z,77.12
2024-03-04T23:42:23.687Z,77.24
2024-03-04T23:44:51.644Z,77.26
2024-03-04T23:47:22.295Z,77.66
2024-03-04T23:49:51.954Z,77.59
2024-03-04T23:52:21.428Z,77.41
2024-03-04T23:54:49.407Z,77.43
2024-03-04T23:57:17.811Z,77.33
2024-03-04T23:59:45.739Z,77.35
